Time;durP1;ratioP1;P1;durP2;ratioP2;P2;SDS_P1;SDS_P2;PMS_P1;PMS_P2;Temp;Humidity;BMP_temperature;BMP_pressure;BME280_temperature;BME280_humidity;BME280_pressure;Samples;Min_cycle;Max_cycle;Signal;HPM_P1;HPM_P2
2021/07/05 00:00:52;;;;;;;3.33;2.30;;;;;;;;;;5037947;28;20190;-80
2021/07/05 00:03:18;;;;;;;2.67;2.20;;;;;;;;;;5024046;28;20444;-79
2021/07/05 00:05:44;;;;;;;5.07;2.60;;;;;;;;;;5022746;28;20179;-79
2021/07/05 00:08:10;;;;;;;3.20;2.17;;;;;;;;;;5011604;28;20499;-79
2021/07/05 00:10:36;;;;;;;3.10;2.35;;;;;;;;;;5018364;28;20930;-79
2021/07/05 00:13:02;;;;;;;7.40;2.90;;;;;;;;;;5035546;28;20191;-80
2021/07/05 00:15:29;;;;;;;7.78;2.35;;;;;;;;;;5027548;28;20174;-79
2021/07/05 00:17:57;;;;;;;4.57;2.15;;;;;;;;;;5022845;28;20175;-80
2021/07/05 00:20:23;;;;;;;4.68;2.50;;;;;;;;;;5023294;28;20183;-80
2021/07/05 00:22:50;;;;;;;10.00;2.80;;;;;;;;;;5011542;28;20198;-79
2021/07/05 00:25:16;;;;;;;5.15;2.80;;;;;;;;;;5011716;28;20194;-79
2021/07/05 00:27:42;;;;;;;4.55;2.05;;;;;;;;;;5026512;28;20683;-80
2021/07/05 00:30:09;;;;;;;5.85;2.85;;;;;;;;;;5022669;28;20181;-80
2021/07/05 00:32:35;;;;;;;5.75;2.58;;;;;;;;;;5007930;28;20179;-80
2021/07/05 00:35:01;;;;;;;3.90;2.50;;;;;;;;;;5027280;28;20237;-80
2021/07/05 00:37:27;;;;;;;2.95;2.22;;;;;;;;;;5026981;28;20187;-80
2021/07/05 00:39:53;;;;;;;3.75;2.60;;;;;;;;;;5028547;28;20215;-80
2021/07/05 00:42:19;;;;;;;7.47;2.43;;;;;;;;;;5022547;28;20186;-80
2021/07/05 00:44:45;;;;;;;4.93;2.70;;;;;;;;;;5023058;28;20430;-80
2021/07/05 00:47:11;;;;;;;5.50;3.43;;;;;;;;;;5008034;28;20497;-81
2021/07/05 00:49:37;;;;;;;4.23;2.70;;;;;;;;;;5026662;28;20534;-81
2021/07/05 00:52:05;;;;;;;7.35;2.60;;;;;;;;;;5011642;28;20541;-80
2021/07/05 00:54:31;;;;;;;4.35;2.28;;;;;;;;;;5014074;28;20188;-80
2021/07/05 00:56:57;;;;;;;4.85;2.30;;;;;;;;;;5007417;28;20558;-80
2021/07/05 00:59:23;;;;;;;3.17;1.87;;;;;;;;;;5025666;28;20199;-79
2021/07/05 01:01:49;;;;;;;6.03;2.38;;;;;;;;;;5025863;28;20476;-80
2021/07/05 01:04:15;;;;;;;5.17;2.27;;;;;;;;;;5026646;28;20677;-80
2021/07/05 01:06:41;;;;;;;4.20;2.33;;;;;;;;;;5026191;28;20468;-80
2021/07/05 01:09:07;;;;;;;6.68;2.70;;;;;;;;;;5027640;28;20463;-80
2021/07/05 01:11:33;;;;;;;3.95;2.20;;;;;;;;;;5008703;28;20236;-81
2021/07/05 01:13:59;;;;;;;4.13;2.67;;;;;;;;;;5011566;28;20183;-80
2021/07/05 01:16:25;;;;;;;3.73;2.77;;;;;;;;;;5026947;28;20288;-80
2021/07/05 01:18:52;;;;;;;2.95;1.83;;;;;;;;;;5026329;28;20441;-81
2021/07/05 01:21:18;;;;;;;3.97;2.20;;;;;;;;;;5022331;28;20212;-80
2021/07/05 01:23:44;;;;;;;4.93;2.60;;;;;;;;;;5022453;28;20537;-80
2021/07/05 01:26:10;;;;;;;5.83;2.83;;;;;;;;;;5026980;28;20213;-81
2021/07/05 01:28:36;;;;;;;4.78;2.47;;;;;;;;;;5030754;28;20429;-80
2021/07/05 01:31:02;;;;;;;3.80;2.40;;;;;;;;;;5032387;28;20275;-80
2021/07/05 01:33:28;;;;;;;3.38;2.50;;;;;;;;;;5024924;28;20263;-81
2021/07/05 01:35:54;;;;;;;4.60;2.35;;;;;;;;;;5010448;28;20196;-81
2021/07/05 01:38:21;;;;;;;4.18;2.40;;;;;;;;;;5026377;28;20545;-81
2021/07/05 01:40:54;;;;;;;2.50;2.30;;;;;;;;;;5021937;28;20194;-81
2021/07/05 01:43:21;;;;;;;3.25;1.80;;;;;;;;;;5036560;28;20191;-81
2021/07/05 01:45:47;;;;;;;2.00;1.90;;;;;;;;;;5014596;28;20182;-81
2021/07/05 01:48:13;;;;;;;2.30;2.10;;;;;;;;;;5041274;28;20204;-82
2021/07/05 01:50:39;;;;;;;4.10;3.07;;;;;;;;;;5026405;28;20186;-81
2021/07/05 01:53:05;;;;;;;3.42;1.80;;;;;;;;;;5014438;28;20496;-82
2021/07/05 01:55:33;;;;;;;3.35;2.30;;;;;;;;;;5033191;28;20183;-83
2021/07/05 01:58:00;;;;;;;3.22;2.17;;;;;;;;;;5039383;28;20186;-82
2021/07/05 02:00:27;;;;;;;2.40;2.20;;;;;;;;;;5027014;28;20253;-83
2021/07/05 02:02:53;;;;;;;5.50;2.72;;;;;;;;;;5025077;28;20744;-83
2021/07/05 02:05:19;;;;;;;4.85;2.00;;;;;;;;;;5029127;28;20182;-84
2021/07/05 02:07:46;;;;;;;3.70;2.80;;;;;;;;;;5029495;28;20282;-83
2021/07/05 02:10:14;;;;;;;4.88;2.33;;;;;;;;;;5033280;28;20191;-83
2021/07/05 02:12:41;;;;;;;3.40;2.38;;;;;;;;;;5013792;28;20599;-83
2021/07/05 02:15:08;;;;;;;4.20;2.42;;;;;;;;;;5009586;28;20190;-83
2021/07/05 02:17:35;;;;;;;3.25;2.60;;;;;;;;;;5010380;28;20245;-83
2021/07/05 02:20:01;;;;;;;4.32;2.50;;;;;;;;;;5035588;28;20186;-82
2021/07/05 02:22:27;;;;;;;4.82;2.92;;;;;;;;;;5038183;28;20191;-82
2021/07/05 02:24:53;;;;;;;3.07;2.73;;;;;;;;;;5024606;28;20189;-82
2021/07/05 02:27:19;;;;;;;4.68;2.95;;;;;;;;;;5011964;28;20475;-83
2021/07/05 02:29:45;;;;;;;2.88;2.67;;;;;;;;;;5024989;28;20529;-82
2021/07/05 02:32:11;;;;;;;5.32;2.70;;;;;;;;;;5028894;28;20182;-82
2021/07/05 02:34:37;;;;;;;4.38;2.70;;;;;;;;;;5014038;28;20222;-82
2021/07/05 02:37:03;;;;;;;5.45;2.10;;;;;;;;;;5013558;28;20186;-82
2021/07/05 02:39:29;;;;;;;2.20;2.00;;;;;;;;;;5026759;28;20636;-81
2021/07/05 02:41:55;;;;;;;2.83;2.25;;;;;;;;;;5024010;28;20183;-82
2021/07/05 02:44:22;;;;;;;5.47;2.47;;;;;;;;;;5012919;28;20624;-83
2021/07/05 02:46:48;;;;;;;4.72;2.60;;;;;;;;;;5014134;28;20206;-82
2021/07/05 02:49:14;;;;;;;3.42;2.42;;;;;;;;;;5021103;28;21072;-83
2021/07/05 02:51:40;;;;;;;3.35;2.60;;;;;;;;;;5036081;28;20186;-82
2021/07/05 02:54:06;;;;;;;3.67;2.20;;;;;;;;;;5022759;28;20232;-81
2021/07/05 02:56:32;;;;;;;5.15;2.42;;;;;;;;;;5011603;28;20175;-81
2021/07/05 02:58:58;;;;;;;3.20;2.90;;;;;;;;;;5028870;28;20202;-82
2021/07/05 03:01:25;;;;;;;2.60;2.40;;;;;;;;;;5028268;28;20435;-81
2021/07/05 03:03:51;;;;;;;5.40;1.95;;;;;;;;;;5028702;28;20183;-81
2021/07/05 03:06:17;;;;;;;2.50;2.17;;;;;;;;;;5024463;28;20206;-81
2021/07/05 03:08:43;;;;;;;2.10;1.90;;;;;;;;;;5030211;28;20918;-80
2021/07/05 03:11:10;;;;;;;5.35;2.38;;;;;;;;;;5013069;28;20182;-80
2021/07/05 03:13:36;;;;;;;3.78;2.20;;;;;;;;;;5026702;28;20183;-81
2021/07/05 03:16:02;;;;;;;3.80;2.50;;;;;;;;;;5028396;28;20687;-80
2021/07/05 03:18:28;;;;;;;3.30;2.20;;;;;;;;;;5025476;28;20190;-80
2021/07/05 03:20:54;;;;;;;2.33;2.00;;;;;;;;;;5022997;28;20266;-80
2021/07/05 03:23:21;;;;;;;5.35;2.60;;;;;;;;;;5012414;28;20446;-80
2021/07/05 03:25:47;;;;;;;3.17;2.28;;;;;;;;;;5028130;28;20194;-80
2021/07/05 03:28:14;;;;;;;3.35;2.40;;;;;;;;;;5028419;28;20187;-80
2021/07/05 03:30:41;;;;;;;5.78;2.78;;;;;;;;;;5012496;28;20573;-80
2021/07/05 03:33:07;;;;;;;4.38;2.85;;;;;;;;;;5007673;28;20694;-80
2021/07/05 03:35:34;;;;;;;2.60;2.28;;;;;;;;;;5010391;28;20250;-80
2021/07/05 03:38:00;;;;;;;3.92;3.30;;;;;;;;;;5028019;28;20284;-79
2021/07/05 03:40:27;;;;;;;2.67;2.40;;;;;;;;;;5027593;28;20194;-80
2021/07/05 03:42:53;;;;;;;6.20;2.80;;;;;;;;;;5027303;28;20978;-79
2021/07/05 03:45:20;;;;;;;5.18;2.45;;;;;;;;;;5024749;28;20213;-80
2021/07/05 03:47:46;;;;;;;3.25;2.85;;;;;;;;;;5023567;28;20460;-79
2021/07/05 03:50:13;;;;;;;3.90;2.70;;;;;;;;;;5036672;28;20257;-80
2021/07/05 03:52:39;;;;;;;4.05;2.15;;;;;;;;;;5030728;28;20187;-80
2021/07/05 03:55:07;;;;;;;4.05;2.53;;;;;;;;;;5012965;28;20266;-80
2021/07/05 03:57:34;;;;;;;3.65;2.50;;;;;;;;;;5025183;28;20186;-80
2021/07/05 04:00:00;;;;;;;8.15;3.20;;;;;;;;;;5036645;28;20178;-79
2021/07/05 04:02:27;;;;;;;5.25;2.65;;;;;;;;;;5009262;28;20193;-79
2021/07/05 04:04:55;;;;;;;3.63;2.67;;;;;;;;;;5026596;28;20187;-79
2021/07/05 04:07:21;;;;;;;4.05;2.33;;;;;;;;;;5012325;28;20222;-79
2021/07/05 04:09:47;;;;;;;4.15;2.90;;;;;;;;;;5027342;28;20190;-79
2021/07/05 04:12:16;;;;;;;2.38;2.10;;;;;;;;;;5022746;28;20189;-79
2021/07/05 04:14:42;;;;;;;7.95;2.53;;;;;;;;;;5035532;28;20213;-79
2021/07/05 04:17:08;;;;;;;2.40;2.20;;;;;;;;;;5008612;28;20285;-79
2021/07/05 04:19:34;;;;;;;3.33;2.17;;;;;;;;;;5027091;28;20434;-79
2021/07/05 04:22:00;;;;;;;5.53;3.95;;;;;;;;;;5011584;28;20650;-79
2021/07/05 04:24:26;;;;;;;4.80;2.75;;;;;;;;;;5024650;28;20620;-79
2021/07/05 04:26:52;;;;;;;4.50;2.70;;;;;;;;;;5022231;28;20199;-78
2021/07/05 04:29:18;;;;;;;3.25;2.40;;;;;;;;;;5026725;28;20195;-79
2021/07/05 04:31:44;;;;;;;2.42;2.15;;;;;;;;;;5018604;28;20186;-78
2021/07/05 04:34:10;;;;;;;3.43;2.57;;;;;;;;;;5031659;28;20186;-79
2021/07/05 04:36:37;;;;;;;7.95;2.45;;;;;;;;;;5025567;28;20436;-79
2021/07/05 04:39:06;;;;;;;2.88;2.10;;;;;;;;;;5007732;28;20175;-79
2021/07/05 04:41:33;;;;;;;6.30;2.80;;;;;;;;;;5009551;28;20182;-79
2021/07/05 04:43:59;;;;;;;4.90;2.42;;;;;;;;;;5027930;28;20191;-78
2021/07/05 04:46:26;;;;;;;5.10;2.27;;;;;;;;;;5035282;28;20205;-79
2021/07/05 04:48:54;;;;;;;2.95;2.13;;;;;;;;;;5034273;28;20429;-78
2021/07/05 04:51:20;;;;;;;3.70;2.47;;;;;;;;;;5036983;28;20265;-78
2021/07/05 04:53:46;;;;;;;2.42;2.22;;;;;;;;;;5014655;28;20236;-79
2021/07/05 04:56:13;;;;;;;3.72;2.30;;;;;;;;;;5026740;28;20178;-79
2021/07/05 04:58:39;;;;;;;3.58;2.28;;;;;;;;;;5019335;28;20182;-79
2021/07/05 05:01:05;;;;;;;6.97;2.47;;;;;;;;;;5035137;28;20276;-79
2021/07/05 05:03:32;;;;;;;3.13;2.42;;;;;;;;;;5009344;28;20449;-78
2021/07/05 05:05:58;;;;;;;5.35;2.40;;;;;;;;;;5023585;28;20249;-79
2021/07/05 05:08:24;;;;;;;8.60;2.35;;;;;;;;;;5016276;28;20206;-79
2021/07/05 05:10:50;;;;;;;2.80;2.40;;;;;;;;;;5030918;28;20183;-79
2021/07/05 05:13:16;;;;;;;2.30;2.10;;;;;;;;;;5030490;28;20271;-79
2021/07/05 05:15:42;;;;;;;5.17;2.20;;;;;;;;;;5021857;28;20472;-79
2021/07/05 05:18:08;;;;;;;2.60;1.88;;;;;;;;;;5018915;28;20432;-79
2021/07/05 05:20:34;;;;;;;7.22;3.85;;;;;;;;;;5025397;28;20530;-79
2021/07/05 05:23:00;;;;;;;3.17;2.65;;;;;;;;;;5023526;28;20266;-79
2021/07/05 05:25:26;;;;;;;5.60;2.40;;;;;;;;;;5026408;28;20201;-79
2021/07/05 05:27:53;;;;;;;5.35;2.50;;;;;;;;;;5025812;28;20719;-79
2021/07/05 05:30:20;;;;;;;3.65;1.60;;;;;;;;;;5026364;28;24121;-80
2021/07/05 05:32:47;;;;;;;2.42;2.22;;;;;;;;;;5018038;28;20181;-80
2021/07/05 05:35:13;;;;;;;2.00;1.90;;;;;;;;;;5041140;28;20181;-79
2021/07/05 05:37:39;;;;;;;1.98;1.88;;;;;;;;;;5034106;28;20198;-79
2021/07/05 05:40:06;;;;;;;2.00;1.80;;;;;;;;;;5025075;28;20249;-80
2021/07/05 05:42:32;;;;;;;2.35;1.70;;;;;;;;;;5042544;28;20980;-79
2021/07/05 05:44:58;;;;;;;2.08;1.90;;;;;;;;;;5010962;28;20190;-79
2021/07/05 05:47:24;;;;;;;2.20;2.00;;;;;;;;;;5039856;28;20202;-79
2021/07/05 05:49:50;;;;;;;2.47;1.97;;;;;;;;;;5019110;28;20464;-80
2021/07/05 05:52:16;;;;;;;2.53;1.87;;;;;;;;;;5021588;28;20449;-79
2021/07/05 05:54:42;;;;;;;3.00;1.73;;;;;;;;;;5025307;28;20452;-79
2021/07/05 05:57:24;;;;;;;3.00;1.53;;;;;;;;;;5032004;28;20437;-78
2021/07/05 05:59:50;;;;;;;1.60;1.50;;;;;;;;;;5025136;28;20432;-80
2021/07/05 06:02:16;;;;;;;2.15;1.80;;;;;;;;;;5031255;28;20194;-80
2021/07/05 06:04:42;;;;;;;3.30;1.43;;;;;;;;;;5022585;28;20194;-80
2021/07/05 06:07:08;;;;;;;1.57;1.47;;;;;;;;;;5016544;28;20461;-78
2021/07/05 06:09:34;;;;;;;2.67;1.40;;;;;;;;;;5012938;28;20520;-80
2021/07/05 06:12:00;;;;;;;1.80;1.70;;;;;;;;;;5019619;28;20183;-78
2021/07/05 06:14:26;;;;;;;9.80;1.70;;;;;;;;;;5017856;28;20425;-79
2021/07/05 06:16:52;;;;;;;2.13;1.40;;;;;;;;;;5030204;28;20227;-78
2021/07/05 06:19:18;;;;;;;1.47;1.37;;;;;;;;;;5028244;28;20831;-79
2021/07/05 06:21:45;;;;;;;3.13;1.50;;;;;;;;;;5031285;28;20465;-80
2021/07/05 06:24:11;;;;;;;2.30;1.53;;;;;;;;;;5024452;28;20248;-78
2021/07/05 06:26:37;;;;;;;2.63;1.80;;;;;;;;;;5012808;28;20925;-78
2021/07/05 06:29:03;;;;;;;1.60;1.50;;;;;;;;;;5011011;28;20445;-78
2021/07/05 06:31:32;;;;;;;1.95;1.60;;;;;;;;;;5029451;28;20786;-78
2021/07/05 06:33:58;;;;;;;3.40;1.50;;;;;;;;;;5030756;28;20178;-79
2021/07/05 06:36:24;;;;;;;1.77;1.50;;;;;;;;;;5024628;28;20186;-79
2021/07/05 06:38:50;;;;;;;1.50;1.40;;;;;;;;;;5012768;28;20180;-78
2021/07/05 06:41:16;;;;;;;3.05;1.80;;;;;;;;;;5023673;28;20420;-78
2021/07/05 06:43:42;;;;;;;2.65;1.85;;;;;;;;;;5019832;28;20272;-79
2021/07/05 06:46:08;;;;;;;1.85;1.75;;;;;;;;;;5022327;28;20237;-78
2021/07/05 06:48:34;;;;;;;2.20;2.00;;;;;;;;;;5027460;28;20576;-78
2021/07/05 06:51:00;;;;;;;3.90;1.60;;;;;;;;;;5008549;28;20238;-78
2021/07/05 06:53:26;;;;;;;2.35;1.60;;;;;;;;;;5025583;28;20240;-78
2021/07/05 06:55:52;;;;;;;3.40;1.75;;;;;;;;;;5031103;28;20187;-78
2021/07/05 06:58:18;;;;;;;1.30;1.15;;;;;;;;;;5028313;28;20182;-78
2021/07/05 07:00:45;;;;;;;3.43;1.47;;;;;;;;;;5027858;28;20190;-78
2021/07/05 07:03:11;;;;;;;2.28;1.60;;;;;;;;;;5035193;28;20959;-78
2021/07/05 07:05:38;;;;;;;1.83;1.73;;;;;;;;;;5021633;28;20191;-78
2021/07/05 07:08:05;;;;;;;1.85;1.75;;;;;;;;;;5021761;28;20482;-78
2021/07/05 07:10:31;;;;;;;1.33;1.23;;;;;;;;;;5036249;28;20250;-78
2021/07/05 07:12:57;;;;;;;1.73;1.40;;;;;;;;;;5018441;28;20202;-79
2021/07/05 07:15:31;;;;;;;2.13;1.70;;;;;;;;;;5021993;28;20262;-78
2021/07/05 07:20:32;;;;;;;3.65;1.98;;;;;;;;;;5010170;28;20178;-79
2021/07/05 07:22:58;;;;;;;2.53;1.90;;;;;;;;;;5018210;28;20183;-80
2021/07/05 07:25:25;;;;;;;1.87;1.77;;;;;;;;;;5034773;28;20182;-80
2021/07/05 07:27:51;;;;;;;1.63;1.52;;;;;;;;;;5037067;28;20552;-80
2021/07/05 07:30:17;;;;;;;1.83;1.73;;;;;;;;;;5007076;28;20205;-80
2021/07/05 07:32:44;;;;;;;1.40;1.30;;;;;;;;;;5037530;28;20941;-80
2021/07/05 07:35:11;;;;;;;3.05;1.88;;;;;;;;;;5019513;28;20182;-80
2021/07/05 07:37:38;;;;;;;1.92;1.58;;;;;;;;;;5021583;28;20190;-82
2021/07/05 07:42:40;;;;;;;2.80;2.08;;;;;;;;;;5022471;28;20630;-92
2021/07/05 07:45:07;;;;;;;3.75;2.05;;;;;;;;;;5037329;28;20696;-89
2021/07/05 07:47:33;;;;;;;2.92;1.73;;;;;;;;;;5024086;28;20213;-92
2021/07/05 07:49:59;;;;;;;3.70;1.97;;;;;;;;;;5022847;28;20402;-91
2021/07/05 07:52:28;;;;;;;1.83;1.60;;;;;;;;;;5020370;28;20437;-92
2021/07/05 07:54:54;;;;;;;3.33;2.47;;;;;;;;;;5038474;28;20512;-94
2021/07/05 07:57:20;;;;;;;1.95;1.83;;;;;;;;;;5009455;28;20194;-89
2021/07/05 07:59:46;;;;;;;2.25;2.05;;;;;;;;;;5009137;28;20180;-86
2021/07/05 08:02:12;;;;;;;4.57;2.10;;;;;;;;;;5028792;28;20175;-90
2021/07/05 08:04:39;;;;;;;2.55;1.52;;;;;;;;;;5028770;28;20263;-90
2021/07/05 08:07:06;;;;;;;2.55;1.90;;;;;;;;;;5013222;28;20213;-91
2021/07/05 08:09:32;;;;;;;2.17;1.88;;;;;;;;;;5012372;28;20437;-91
2021/07/05 08:11:58;;;;;;;1.90;1.80;;;;;;;;;;5008395;28;20179;-91
2021/07/05 08:14:24;;;;;;;1.80;1.70;;;;;;;;;;5009011;28;20175;-87
2021/07/05 08:16:50;;;;;;;2.57;1.93;;;;;;;;;;5028266;28;20470;-88
2021/07/05 08:19:16;;;;;;;2.37;2.17;;;;;;;;;;5028857;28;20416;-89
2021/07/05 08:21:42;;;;;;;1.70;1.60;;;;;;;;;;5027285;28;20444;-87
2021/07/05 08:24:08;;;;;;;2.20;1.70;;;;;;;;;;5007414;28;20451;-87
2021/07/05 08:26:35;;;;;;;2.33;2.13;;;;;;;;;;5010789;28;20668;-87
2021/07/05 08:29:01;;;;;;;3.65;2.20;;;;;;;;;;5028276;28;20190;-87
2021/07/05 08:31:28;;;;;;;2.42;2.20;;;;;;;;;;5028138;28;20226;-86
2021/07/05 08:33:54;;;;;;;1.65;1.55;;;;;;;;;;5027706;28;20193;-86
2021/07/05 08:36:20;;;;;;;1.73;1.63;;;;;;;;;;5009122;28;20660;-85
2021/07/05 08:38:47;;;;;;;1.90;1.35;;;;;;;;;;5023256;28;20175;-84
2021/07/05 08:41:13;;;;;;;1.05;0.95;;;;;;;;;;5027304;28;20186;-85
2021/07/05 08:43:41;;;;;;;1.20;1.10;;;;;;;;;;5026765;28;20191;-83
2021/07/05 08:46:08;;;;;;;0.80;0.80;;;;;;;;;;5012316;28;21322;-85
2021/07/05 08:48:35;;;;;;;1.08;0.93;;;;;;;;;;5026274;28;20201;-84
2021/07/05 08:51:03;;;;;;;1.20;1.10;;;;;;;;;;5022338;28;20175;-83
2021/07/05 08:53:29;;;;;;;1.10;1.00;;;;;;;;;;5008715;28;20171;-82
2021/07/05 08:55:56;;;;;;;2.47;1.17;;;;;;;;;;5026948;28;20183;-83
2021/07/05 08:58:22;;;;;;;1.65;1.40;;;;;;;;;;5012696;28;20577;-83
2021/07/05 09:00:48;;;;;;;1.23;1.13;;;;;;;;;;5027284;28;20237;-83
2021/07/05 09:03:14;;;;;;;1.38;1.27;;;;;;;;;;5007706;28;20197;-83
2021/07/05 09:05:40;;;;;;;1.23;1.13;;;;;;;;;;5007383;28;20168;-82
2021/07/05 09:08:10;;;;;;;1.38;0.90;;;;;;;;;;5026284;28;20494;-83
2021/07/05 09:10:47;;;;;;;1.63;1.20;;;;;;;;;;5027125;28;20188;-82
2021/07/05 09:13:15;;;;;;;1.90;1.02;;;;;;;;;;5012095;28;20183;-82
2021/07/05 09:15:45;;;;;;;1.77;1.00;;;;;;;;;;5025355;28;20279;-81
2021/07/05 09:18:25;;;;;;;1.83;1.20;;;;;;;;;;5022155;28;20334;-81
2021/07/05 09:20:52;;;;;;;1.55;0.90;;;;;;;;;;5019865;28;20206;-82
2021/07/05 09:23:18;;;;;;;0.90;0.80;;;;;;;;;;5010405;28;20675;-81
2021/07/05 09:25:46;;;;;;;1.00;1.00;;;;;;;;;;5011961;28;20417;-82
2021/07/05 09:28:12;;;;;;;3.35;0.90;;;;;;;;;;5027166;28;20304;-81
2021/07/05 09:30:41;;;;;;;3.10;0.80;;;;;;;;;;5010705;28;20182;-81
2021/07/05 09:33:20;;;;;;;1.00;0.90;;;;;;;;;;5006905;28;20183;-80
2021/07/05 09:35:47;;;;;;;1.83;0.80;;;;;;;;;;5017957;28;20172;-81
2021/07/05 09:38:26;;;;;;;1.50;0.98;;;;;;;;;;5036694;28;20263;-81
2021/07/05 09:40:52;;;;;;;1.08;1.02;;;;;;;;;;5014104;28;20189;-81
2021/07/05 09:43:27;;;;;;;1.02;1.00;;;;;;;;;;5026718;28;20189;-79
2021/07/05 09:45:53;;;;;;;0.90;0.90;;;;;;;;;;5026395;28;20692;-80
2021/07/05 09:48:21;;;;;;;1.02;0.82;;;;;;;;;;5022863;28;20188;-80
2021/07/05 09:50:48;;;;;;;0.80;0.80;;;;;;;;;;5022346;28;20176;-80
2021/07/05 09:53:32;;;;;;;0.90;0.90;;;;;;;;;;5011141;28;20256;-80
2021/07/05 09:56:18;;;;;;;2.55;0.90;;;;;;;;;;5012466;28;20185;-79
2021/07/05 09:58:44;;;;;;;10.48;1.13;;;;;;;;;;5030115;28;20191;-79
2021/07/05 10:01:10;;;;;;;1.33;0.95;;;;;;;;;;5030593;28;20253;-78
2021/07/05 10:03:39;;;;;;;2.10;0.90;;;;;;;;;;5028340;28;20187;-79
2021/07/05 10:06:19;;;;;;;1.00;0.90;;;;;;;;;;5009098;28;20196;-78
2021/07/05 10:08:46;;;;;;;1.30;1.13;;;;;;;;;;5022336;28;20173;-79
2021/07/05 10:11:12;;;;;;;1.23;1.15;;;;;;;;;;5029978;28;20245;-78
2021/07/05 10:13:38;;;;;;;1.10;1.00;;;;;;;;;;5029526;28;20201;-79
2021/07/05 10:16:07;;;;;;;1.10;1.00;;;;;;;;;;5029131;28;20279;-79
2021/07/05 10:18:33;;;;;;;1.15;0.90;;;;;;;;;;5027622;28;20191;-79
2021/07/05 10:21:00;;;;;;;1.10;1.00;;;;;;;;;;5024560;28;20174;-79
2021/07/05 10:23:26;;;;;;;1.17;1.10;;;;;;;;;;5011741;28;20632;-79
2021/07/05 10:25:52;;;;;;;1.10;1.00;;;;;;;;;;5029456;28;20194;-79
2021/07/05 10:28:19;;;;;;;1.20;1.10;;;;;;;;;;5029603;28;20411;-78
2021/07/05 10:30:46;;;;;;;1.10;1.00;;;;;;;;;;5029260;28;20189;-79
2021/07/05 10:33:12;;;;;;;1.07;1.03;;;;;;;;;;5009550;28;20440;-80
2021/07/05 10:35:38;;;;;;;0.90;0.90;;;;;;;;;;5010769;28;20457;-80
2021/07/05 10:38:12;;;;;;;2.20;0.90;;;;;;;;;;5029558;28;20454;-79
2021/07/05 10:40:49;;;;;;;0.90;0.90;;;;;;;;;;5029403;28;20472;-81
2021/07/05 10:43:16;;;;;;;0.80;0.80;;;;;;;;;;5014034;28;20453;-82
2021/07/05 10:45:48;;;;;;;0.90;0.90;;;;;;;;;;5028258;28;20438;-78
2021/07/05 10:48:18;;;;;;;1.33;1.20;;;;;;;;;;5040738;28;20469;-80
2021/07/05 10:50:47;;;;;;;1.33;1.00;;;;;;;;;;5020686;28;20499;-81
2021/07/05 10:53:16;;;;;;;1.93;1.00;;;;;;;;;;5029021;28;20405;-80
2021/07/05 10:55:44;;;;;;;0.93;0.93;;;;;;;;;;5028768;28;20436;-81
2021/07/05 10:58:25;;;;;;;2.90;0.98;;;;;;;;;;5029036;28;20195;-80
2021/07/05 11:00:53;;;;;;;1.30;0.97;;;;;;;;;;5029388;28;20193;-80
2021/07/05 11:03:37;;;;;;;1.20;1.10;;;;;;;;;;5009729;28;20445;-80
2021/07/05 11:06:11;;;;;;;1.00;0.90;;;;;;;;;;5008346;28;20175;-80
2021/07/05 11:08:44;;;;;;;1.17;1.00;;;;;;;;;;5010819;28;20179;-80
2021/07/05 11:11:18;;;;;;;1.00;0.90;;;;;;;;;;5028883;28;20957;-81
2021/07/05 11:13:45;;;;;;;2.90;0.90;;;;;;;;;;5028744;28;20438;-79
2021/07/05 11:16:12;;;;;;;0.80;0.80;;;;;;;;;;5028620;28;20444;-82
2021/07/05 11:18:38;;;;;;;1.70;0.93;;;;;;;;;;5026894;28;20433;-80
2021/07/05 11:21:09;;;;;;;0.80;0.80;;;;;;;;;;5023822;28;20396;-80
2021/07/05 11:23:54;;;;;;;0.80;0.80;;;;;;;;;;5009599;28;20830;-83
2021/07/05 11:26:21;;;;;;;0.80;0.80;;;;;;;;;;5026941;28;20440;-80
2021/07/05 11:28:47;;;;;;;1.73;1.27;;;;;;;;;;5028751;28;20768;-80
2021/07/05 11:31:20;;;;;;;1.00;0.90;;;;;;;;;;5028386;28;20430;-83
2021/07/05 11:33:46;;;;;;;2.60;0.70;;;;;;;;;;5027930;28;20509;-80
2021/07/05 11:36:20;;;;;;;1.00;0.80;;;;;;;;;;5023025;28;20471;-80
2021/07/05 11:38:58;;;;;;;0.97;0.97;;;;;;;;;;5020077;28;20405;-81
2021/07/05 11:41:25;;;;;;;1.57;0.80;;;;;;;;;;5012164;28;20399;-80
2021/07/05 11:44:02;;;;;;;1.07;1.00;;;;;;;;;;5027864;28;20431;-81
2021/07/05 11:46:28;;;;;;;0.93;0.93;;;;;;;;;;5028071;28;20780;-81
2021/07/05 11:49:06;;;;;;;0.93;0.90;;;;;;;;;;5027792;28;20464;-81
2021/07/05 11:51:35;;;;;;;1.77;0.90;;;;;;;;;;5025730;28;20437;-81
2021/07/05 11:54:04;;;;;;;1.20;0.90;;;;;;;;;;5023146;28;20414;-81
2021/07/05 11:56:31;;;;;;;1.40;1.10;;;;;;;;;;5011051;28;20408;-80
2021/07/05 11:58:58;;;;;;;0.83;0.83;;;;;;;;;;5013189;28;20453;-80
2021/07/05 12:01:28;;;;;;;1.37;1.17;;;;;;;;;;5028091;28;20409;-81
2021/07/05 12:03:56;;;;;;;0.80;0.80;;;;;;;;;;5027737;28;20424;-80
2021/07/05 12:06:22;;;;;;;0.90;0.90;;;;;;;;;;5008837;28;20494;-82
2021/07/05 12:08:59;;;;;;;0.70;0.70;;;;;;;;;;5023567;28;20420;-81
2021/07/05 12:11:28;;;;;;;0.70;0.70;;;;;;;;;;5011702;28;20423;-81
2021/07/05 12:14:11;;;;;;;1.30;0.80;;;;;;;;;;5027731;28;20893;-81
2021/07/05 12:16:37;;;;;;;1.83;0.60;;;;;;;;;;5027082;28;20514;-80
2021/07/05 12:19:04;;;;;;;1.47;0.80;;;;;;;;;;5026926;28;20423;-80
2021/07/05 12:21:31;;;;;;;0.63;0.63;;;;;;;;;;5009716;28;20447;-82
2021/07/05 12:24:07;;;;;;;0.60;0.60;;;;;;;;;;5008743;28;20428;-80
2021/07/05 12:26:40;;;;;;;0.70;0.70;;;;;;;;;;5008963;28;20452;-82
2021/07/05 12:29:13;;;;;;;0.70;0.70;;;;;;;;;;5012272;28;20465;-80
2021/07/05 12:31:51;;;;;;;1.93;0.77;;;;;;;;;;5027199;28;20448;-84
2021/07/05 12:34:36;;;;;;;1.40;0.70;;;;;;;;;;5027234;28;20445;-81
2021/07/05 12:37:02;;;;;;;1.57;0.60;;;;;;;;;;5026688;28;20520;-81
2021/07/05 12:39:28;;;;;;;1.30;0.73;;;;;;;;;;5025081;28;20447;-82
2021/07/05 12:41:54;;;;;;;0.70;0.70;;;;;;;;;;5007759;28;20657;-80
2021/07/05 12:44:20;;;;;;;0.60;0.60;;;;;;;;;;5026490;28;20427;-81
2021/07/05 12:46:46;;;;;;;0.60;0.60;;;;;;;;;;5026637;28;20474;-81
2021/07/05 12:49:12;;;;;;;0.60;0.60;;;;;;;;;;5027491;28;20438;-82
2021/07/05 12:51:38;;;;;;;0.70;0.70;;;;;;;;;;5025760;28;20439;-80
2021/07/05 12:54:19;;;;;;;0.57;0.57;;;;;;;;;;5022726;28;20826;-81
2021/07/05 12:56:45;;;;;;;0.60;0.60;;;;;;;;;;5020488;28;20709;-80
2021/07/05 12:59:19;;;;;;;0.70;0.70;;;;;;;;;;5027307;28;20449;-81
2021/07/05 13:01:45;;;;;;;0.60;0.60;;;;;;;;;;5011848;28;20434;-81
2021/07/05 13:04:12;;;;;;;0.60;0.60;;;;;;;;;;5012221;28;20424;-83
2021/07/05 13:07:02;;;;;;;0.70;0.60;;;;;;;;;;5025377;28;20432;-81
2021/07/05 13:09:29;;;;;;;1.00;0.60;;;;;;;;;;5024490;28;20413;-81
2021/07/05 13:11:58;;;;;;;0.80;0.70;;;;;;;;;;5022686;28;20432;-81
2021/07/05 13:14:25;;;;;;;0.60;0.60;;;;;;;;;;5025804;28;20471;-81
2021/07/05 13:17:03;;;;;;;3.50;0.70;;;;;;;;;;5026716;28;20531;-82
2021/07/05 13:19:29;;;;;;;0.53;0.53;;;;;;;;;;5012373;28;20421;-81
2021/07/05 13:21:55;;;;;;;0.70;0.57;;;;;;;;;;5011625;28;20510;-82
2021/07/05 13:24:29;;;;;;;0.60;0.60;;;;;;;;;;5023210;28;20945;-82
2021/07/05 13:26:56;;;;;;;2.50;0.60;;;;;;;;;;5022048;28;20465;-82
2021/07/05 13:29:27;;;;;;;0.60;0.50;;;;;;;;;;5026417;28;20383;-83
2021/07/05 13:31:53;;;;;;;2.73;0.60;;;;;;;;;;5015593;28;20444;-81
2021/07/05 13:34:38;;;;;;;0.70;0.70;;;;;;;;;;5030545;28;20442;-83
2021/07/05 13:37:05;;;;;;;0.60;0.60;;;;;;;;;;5014935;28;20446;-82
2021/07/05 13:39:32;;;;;;;1.10;0.70;;;;;;;;;;5028254;28;20483;-83
2021/07/05 13:42:04;;;;;;;0.60;0.60;;;;;;;;;;5026066;28;20458;-82
2021/07/05 13:44:30;;;;;;;0.70;0.70;;;;;;;;;;5027006;28;20451;-84
2021/07/05 13:47:15;;;;;;;0.60;0.60;;;;;;;;;;5029825;28;20465;-81
2021/07/05 13:49:41;;;;;;;0.60;0.60;;;;;;;;;;5030483;28;20439;-84
2021/07/05 13:52:07;;;;;;;1.53;0.70;;;;;;;;;;5014892;28;20471;-82
2021/07/05 13:54:34;;;;;;;1.60;0.60;;;;;;;;;;5028330;28;20459;-81
2021/07/05 13:57:07;;;;;;;1.00;0.60;;;;;;;;;;5025863;28;20484;-81
2021/07/05 13:59:33;;;;;;;1.50;0.70;;;;;;;;;;5026777;28;20392;-83
2021/07/05 14:01:59;;;;;;;0.63;0.63;;;;;;;;;;5030276;28;20430;-83
2021/07/05 14:04:27;;;;;;;0.60;0.60;;;;;;;;;;5015382;28;20434;-81
2021/07/05 14:06:53;;;;;;;0.60;0.60;;;;;;;;;;5014535;28;20447;-83
2021/07/05 14:09:19;;;;;;;0.50;0.50;;;;;;;;;;5011056;28;20412;-82
2021/07/05 14:11:45;;;;;;;0.80;0.80;;;;;;;;;;5011440;28;20397;-82
2021/07/05 14:14:11;;;;;;;1.30;0.77;;;;;;;;;;5029572;28;20453;-81
2021/07/05 14:16:37;;;;;;;1.00;0.83;;;;;;;;;;5014248;28;20469;-81
2021/07/05 14:19:03;;;;;;;2.00;1.00;;;;;;;;;;5029961;28;20426;-82
2021/07/05 14:21:31;;;;;;;1.00;0.60;;;;;;;;;;5027208;28;20489;-82
2021/07/05 14:23:57;;;;;;;0.97;0.60;;;;;;;;;;5025018;28;20463;-83
2021/07/05 14:26:23;;;;;;;0.70;0.70;;;;;;;;;;5029111;28;20479;-82
2021/07/05 14:28:49;;;;;;;0.70;0.70;;;;;;;;;;5029240;28;20456;-81
2021/07/05 14:31:16;;;;;;;3.20;0.63;;;;;;;;;;5029520;28;20523;-81
2021/07/05 14:33:42;;;;;;;0.77;0.77;;;;;;;;;;5028985;28;20439;-84
2021/07/05 14:36:08;;;;;;;0.77;0.70;;;;;;;;;;5024638;28;20423;-82
2021/07/05 14:38:34;;;;;;;1.43;0.80;;;;;;;;;;5011922;28;20529;-83
2021/07/05 14:41:00;;;;;;;1.10;0.90;;;;;;;;;;5013880;28;20413;-82
2021/07/05 14:43:26;;;;;;;1.73;0.83;;;;;;;;;;5028683;28;20775;-82
2021/07/05 14:45:52;;;;;;;1.03;0.90;;;;;;;;;;5029433;28;20463;-82
2021/07/05 14:48:18;;;;;;;0.70;0.70;;;;;;;;;;5024970;28;20464;-82
2021/07/05 14:50:45;;;;;;;0.70;0.70;;;;;;;;;;5025980;28;20418;-82